createdAt,value
2023-04-11T00:02:42.163Z,1.60
2023-04-11T00:07:43.626Z,1.60
2023-04-11T00:12:44.893Z,1.90
2023-04-11T00:17:46.187Z,1.83
2023-04-11T00:22:47.659Z,2.10
2023-04-11T00:27:48.991Z,1.88
2023-04-11T00:32:50.464Z,1.87
2023-04-11T00:37:56.132Z,1.95
2023-04-11T00:42:57.452Z,1.90
2023-04-11T00:47:58.824Z,2.10
2023-04-11T00:53:00.204Z,2.00
2023-04-11T00:58:01.667Z,1.90
2023-04-11T01:03:03.212Z,1.70
2023-04-11T01:08:04.770Z,1.80
2023-04-11T01:13:06.421Z,1.23
2023-04-11T01:18:09.022Z,1.13
2023-04-11T01:23:10.775Z,1.10
2023-04-11T01:28:12.657Z,1.23
2023-04-11T01:33:15.276Z,1.08
2023-04-11T01:38:16.588Z,1.00
2023-04-11T01:43:17.917Z,0.85
2023-04-11T01:48:20.298Z,0.80
2023-04-11T01:53:21.680Z,0.95
2023-04-11T01:58:22.976Z,0.80
2023-04-11T02:03:24.483Z,0.80
2023-04-11T02:08:25.854Z,0.55
2023-04-11T02:13:27.205Z,0.80
2023-04-11T02:18:28.506Z,1.10
2023-04-11T02:23:29.819Z,1.13
2023-04-11T02:28:31.150Z,0.90
2023-04-11T02:33:32.420Z,0.95
2023-04-11T02:38:33.695Z,0.83
2023-04-11T02:43:34.995Z,0.90
2023-04-11T02:48:36.314Z,1.08
2023-04-11T02:53:37.722Z,0.90
2023-04-11T02:58:41.661Z,0.80
2023-04-11T03:03:43.588Z,0.90
2023-04-11T03:08:45.184Z,0.85
2023-04-11T03:13:46.500Z,0.90
2023-04-11T03:18:47.841Z,1.13
2023-04-11T03:23:49.491Z,0.90
2023-04-11T03:28:50.935Z,0.80
2023-04-11T03:33:52.322Z,1.13
2023-04-11T03:38:53.787Z,1.33
2023-04-11T03:43:55.832Z,0.90
2023-04-11T03:48:57.503Z,1.00
2023-04-11T03:53:59.046Z,1.23
2023-04-11T03:59:00.390Z,1.10
2023-04-11T04:04:02.124Z,1.13
2023-04-11T04:09:04.220Z,0.90
2023-04-11T04:14:05.526Z,0.70
2023-04-11T04:19:06.826Z,0.70
2023-04-11T04:24:08.113Z,0.80
2023-04-11T04:29:10.248Z,0.80
2023-04-11T04:34:11.993Z,1.00
2023-04-11T04:39:18.611Z,0.85
2023-04-11T04:44:20.020Z,0.90
2023-04-11T04:49:21.535Z,0.90
2023-04-11T04:54:23.789Z,0.70
2023-04-11T04:59:25.928Z,1.10
2023-04-11T05:04:27.404Z,0.63
2023-04-11T05:09:29.023Z,0.97
2023-04-11T05:14:30.295Z,0.82
2023-04-11T05:19:32.337Z,0.90
2023-04-11T05:24:33.636Z,1.23
2023-04-11T05:29:34.961Z,0.93
2023-04-11T05:34:49.818Z,0.77
2023-04-11T05:39:52.603Z,0.70
2023-04-11T05:44:53.939Z,0.77
2023-04-11T05:49:55.402Z,0.70
2023-04-11T05:54:56.746Z,0.52
2023-04-11T06:00:01.868Z,0.83
2023-04-11T06:05:03.783Z,0.90
2023-04-11T06:10:06.339Z,0.75
2023-04-11T06:15:09.217Z,0.80
2023-04-11T06:20:11.090Z,0.80
2023-04-11T06:25:12.901Z,0.90
2023-04-11T06:30:14.292Z,1.02
2023-04-11T06:35:15.588Z,0.90
2023-04-11T06:40:17.236Z,0.90
2023-04-11T06:45:18.760Z,0.85
2023-04-11T06:50:20.209Z,1.20
2023-04-11T06:55:23.031Z,1.52
2023-04-11T07:00:24.490Z,1.65
2023-04-11T07:05:26.575Z,1.40
2023-04-11T07:10:27.945Z,1.60
2023-04-11T07:15:29.276Z,1.60
2023-04-11T07:20:32.831Z,1.58
2023-04-11T07:25:34.128Z,1.30
2023-04-11T07:30:38.175Z,1.40
2023-04-11T07:35:39.533Z,1.20
2023-04-11T07:40:40.921Z,1.83
2023-04-11T07:45:43.035Z,3.97
2023-04-11T07:50:44.485Z,2.58
2023-04-11T07:55:45.773Z,1.60
2023-04-11T08:00:47.580Z,0.97
2023-04-11T08:05:48.882Z,2.03
2023-04-11T08:10:52.127Z,1.38
2023-04-11T08:15:53.737Z,1.30
2023-04-11T08:20:55.360Z,1.08
2023-04-11T08:25:56.809Z,1.30
2023-04-11T08:30:58.485Z,1.30
2023-04-11T08:36:00.010Z,1.48
2023-04-11T08:41:01.412Z,1.37
2023-04-11T08:46:05.879Z,1.40
2023-04-11T08:51:07.563Z,1.47
2023-04-11T08:56:14.144Z,1.48
2023-04-11T09:01:33.991Z,1.58
2023-04-11T09:06:35.442Z,1.30
2023-04-11T09:11:52.601Z,1.50
2023-04-11T09:17:00.741Z,1.70
2023-04-11T09:22:05.010Z,1.40
2023-04-11T09:27:10.463Z,1.35
2023-04-11T09:32:30.600Z,1.27
2023-04-11T09:37:41.738Z,1.30
2023-04-11T09:42:43.598Z,1.33
2023-04-11T09:47:45.900Z,1.40
2023-04-11T09:52:47.450Z,1.35
2023-04-11T09:57:49.774Z,1.20
2023-04-11T10:02:55.311Z,1.20
2023-04-11T10:08:03.688Z,3.55
2023-04-11T10:13:24.952Z,1.10
2023-04-11T10:18:26.432Z,1.27
2023-04-11T10:23:27.867Z,1.80
2023-04-11T10:28:33.548Z,1.20
2023-04-11T10:33:36.036Z,6.20
2023-04-11T10:38:44.058Z,1.55
2023-04-11T10:43:46.059Z,2.07
2023-04-11T10:49:00.690Z,2.20
2023-04-11T10:54:02.786Z,1.63
2023-04-11T10:59:04.342Z,1.53
2023-04-11T11:04:06.676Z,1.75
2023-04-11T11:09:34.687Z,1.10
2023-04-11T11:14:36.507Z,1.60
2023-04-11T11:19:38.007Z,1.02
2023-04-11T11:24:39.465Z,0.80
2023-04-11T11:29:40.839Z,1.38
2023-04-11T11:34:42.151Z,1.40
2023-04-11T11:39:43.663Z,1.87
2023-04-11T11:44:44.969Z,1.42
2023-04-11T11:49:47.418Z,1.10
2023-04-11T11:54:48.983Z,1.00
2023-04-11T11:59:56.605Z,1.55
2023-04-11T12:05:01.549Z,1.00
2023-04-11T12:10:06.288Z,1.20
2023-04-11T12:15:11.896Z,1.40
2023-04-11T12:20:13.315Z,1.40
2023-04-11T12:25:14.987Z,3.05
2023-04-11T12:30:16.587Z,1.63
2023-04-11T12:35:17.932Z,5.47
2023-04-11T12:40:19.337Z,1.73
2023-04-11T12:45:20.836Z,2.63
2023-04-11T12:50:23.716Z,1.23
2023-04-11T12:55:25.614Z,1.10
2023-04-11T13:00:26.987Z,1.67
2023-04-11T13:05:28.322Z,1.15
2023-04-11T13:10:29.667Z,0.80
2023-04-11T13:15:31.038Z,1.83
2023-04-11T13:20:32.553Z,1.38
2023-04-11T13:25:33.947Z,1.37
2023-04-11T13:30:35.306Z,1.38
2023-04-11T13:35:36.570Z,3.25
2023-04-11T13:40:39.408Z,1.37
2023-04-11T13:45:40.874Z,1.20
2023-04-11T13:50:42.278Z,8.07
2023-04-11T13:55:45.034Z,2.30
2023-04-11T14:00:46.776Z,1.08
2023-04-11T14:05:48.081Z,1.40
2023-04-11T14:10:49.345Z,1.05
2023-04-11T14:16:04.787Z,1.23
2023-04-11T14:21:09.064Z,1.40
2023-04-11T14:26:10.448Z,4.57
2023-04-11T14:31:11.982Z,1.30
2023-04-11T14:36:13.419Z,1.17
2023-04-11T14:41:14.754Z,1.67
2023-04-11T14:46:16.242Z,1.30
2023-04-11T14:51:17.594Z,1.30
2023-04-11T14:56:19.810Z,1.52
2023-04-11T15:01:21.515Z,0.93
2023-04-11T15:06:22.848Z,1.30
2023-04-11T15:11:24.254Z,1.13
2023-04-11T15:16:25.631Z,1.40
2023-04-11T15:21:27.523Z,1.00
2023-04-11T15:26:29.982Z,2.03
2023-04-11T15:31:31.857Z,1.10
2023-04-11T15:36:34.021Z,1.30
2023-04-11T15:41:35.983Z,1.13
2023-04-11T15:46:40.910Z,1.50
2023-04-11T15:51:44.298Z,1.33
2023-04-11T15:56:45.722Z,1.10
2023-04-11T16:01:47.210Z,1.27
2023-04-11T16:06:51.576Z,1.07
2023-04-11T16:11:52.953Z,1.23
2023-04-11T16:16:55.588Z,1.30
2023-04-11T16:21:56.871Z,1.70
2023-04-11T16:26:58.366Z,1.37
2023-04-11T16:31:59.754Z,1.15
2023-04-11T16:37:07.252Z,1.20
2023-04-11T16:42:08.568Z,1.20
2023-04-11T16:47:10.076Z,2.83
2023-04-11T16:52:12.843Z,1.07
2023-04-11T16:57:18.270Z,1.47
2023-04-11T17:02:23.680Z,1.42
2023-04-11T17:07:25.041Z,1.27
2023-04-11T17:12:27.093Z,1.20
2023-04-11T17:17:28.497Z,1.60
2023-04-11T17:22:30.038Z,1.80
2023-04-11T17:27:31.558Z,2.67
2023-04-11T17:32:36.033Z,1.80
2023-04-11T17:37:39.595Z,1.90
2023-04-11T17:42:41.504Z,2.47
2023-04-11T17:47:45.810Z,2.77
2023-04-11T17:52:50.029Z,1.70
2023-04-11T17:57:55.582Z,1.80
2023-04-11T18:03:00.511Z,2.73
2023-04-11T18:08:03.384Z,2.37
2023-04-11T18:13:04.722Z,2.13
2023-04-11T18:18:09.645Z,1.80
2023-04-11T18:23:11.108Z,1.80
2023-04-11T18:28:12.410Z,1.95
2023-04-11T18:33:17.854Z,2.80
2023-04-11T18:38:20.425Z,2.45
2023-04-11T18:43:24.844Z,1.80
2023-04-11T18:48:26.416Z,2.30
2023-04-11T18:53:31.796Z,2.53
2023-04-11T18:58:37.560Z,3.30
2023-04-11T19:03:40.177Z,3.28
2023-04-11T19:08:43.621Z,2.90
2023-04-11T19:13:45.033Z,4.18
2023-04-11T19:18:46.474Z,3.90
2023-04-11T19:23:53.965Z,2.57
2023-04-11T19:28:55.447Z,2.35
2023-04-11T19:33:57.012Z,3.27
2023-04-11T19:38:58.591Z,3.35
2023-04-11T19:43:59.950Z,3.90
2023-04-11T19:49:01.341Z,3.50
2023-04-11T19:54:02.778Z,3.88
2023-04-11T19:59:07.098Z,3.10
2023-04-11T20:04:09.726Z,3.67
2023-04-11T20:09:11.721Z,8.98
2023-04-11T20:14:13.149Z,10.87
2023-04-11T20:19:14.443Z,12.15
2023-04-11T20:24:38.806Z,7.37
2023-04-11T20:29:41.290Z,5.75
2023-04-11T20:34:42.589Z,6.93
2023-04-11T20:39:46.675Z,7.00
2023-04-11T20:44:48.128Z,5.60
2023-04-11T20:49:50.058Z,4.23
2023-04-11T20:54:51.339Z,3.97
2023-04-11T20:59:56.724Z,3.05
2023-04-11T21:04:58.035Z,2.83
2023-04-11T21:10:01.558Z,3.45
2023-04-11T21:15:06.005Z,3.10
2023-04-11T21:20:17.472Z,2.90
2023-04-11T21:25:18.982Z,2.50
2023-04-11T21:30:20.499Z,2.60
2023-04-11T21:35:21.890Z,3.00
2023-04-11T21:40:23.339Z,3.93
2023-04-11T21:45:24.712Z,4.53
2023-04-11T21:50:26.043Z,4.95
2023-04-11T21:55:27.356Z,5.70
2023-04-11T22:00:28.640Z,3.33
2023-04-11T22:05:30.189Z,3.23
2023-04-11T22:10:47.442Z,2.72
2023-04-11T22:15:58.291Z,2.47
2023-04-11T22:21:03.043Z,2.37
2023-04-11T22:26:05.625Z,2.67
2023-04-11T22:31:07.085Z,2.77
2023-04-11T22:36:09.461Z,2.22
2023-04-11T22:41:14.247Z,2.40
2023-04-11T22:46:16.225Z,2.60
2023-04-11T22:51:17.706Z,2.50
2023-04-11T22:56:19.065Z,2.20
2023-04-11T23:01:20.471Z,2.47
2023-04-11T23:06:21.860Z,2.10
2023-04-11T23:11:23.902Z,2.17
2023-04-11T23:16:25.321Z,2.22
2023-04-11T23:21:26.654Z,2.13
2023-04-11T23:26:28.043Z,2.15
2023-04-11T23:31:30.042Z,2.22
2023-04-11T23:36:32.703Z,2.00
2023-04-11T23:41:33.953Z,2.03
2023-04-11T23:46:35.340Z,2.90
2023-04-11T23:51:36.906Z,3.70
2023-04-11T23:56:38.242Z,3.22
